createdAt,value
2019-05-15T00:00:18.688Z,63.13
2019-05-15T00:01:19.259Z,63.23
2019-05-15T00:02:18.674Z,63.32
2019-05-15T00:03:19.697Z,62.94
2019-05-15T00:04:18.794Z,62.75
2019-05-15T00:05:18.935Z,63.13
2019-05-15T00:06:19.175Z,62.46
2019-05-15T00:07:18.652Z,62.85
2019-05-15T00:08:18.635Z,62.37
2019-05-15T00:09:19.247Z,62.56
2019-05-15T00:10:18.597Z,62.65
2019-05-15T00:11:19.282Z,62.46
2019-05-15T00:12:19.010Z,62.65
2019-05-15T00:13:18.633Z,62.75
2019-05-15T00:14:18.574Z,62.27
2019-05-15T00:15:18.559Z,62.65
2019-05-15T00:16:18.553Z,62.56
2019-05-15T00:17:19.232Z,62.27
2019-05-15T00:18:18.692Z,62.27
2019-05-15T00:19:18.890Z,61.99
2019-05-15T00:20:20.219Z,61.90
2019-05-15T00:21:18.504Z,61.90
2019-05-15T00:22:18.556Z,62.37
2019-05-15T00:23:18.488Z,62.08
2019-05-15T00:24:18.475Z,61.90
2019-05-15T00:25:18.932Z,61.80
2019-05-15T00:26:33.386Z,62.46
2019-05-15T00:27:20.182Z,62.08
2019-05-15T00:28:18.680Z,62.43
2019-05-15T00:29:19.724Z,62.34
2019-05-15T00:30:18.531Z,62.34
2019-05-15T00:31:18.718Z,62.53
2019-05-15T00:32:18.674Z,62.43
2019-05-15T00:33:19.310Z,62.34
2019-05-15T00:34:18.459Z,62.53
2019-05-15T00:35:18.592Z,62.72
2019-05-15T00:36:19.194Z,62.81
2019-05-15T00:37:18.408Z,62.72
2019-05-15T00:38:18.778Z,62.81
2019-05-15T00:39:18.969Z,63.57
2019-05-15T00:40:18.560Z,62.91
2019-05-15T00:41:18.571Z,63.39
2019-05-15T00:42:18.993Z,62.81
2019-05-15T00:43:18.475Z,63.10
2019-05-15T00:44:18.746Z,63.20
2019-05-15T00:45:18.610Z,63.20
2019-05-15T00:46:18.449Z,63.20
2019-05-15T00:47:18.274Z,63.01
2019-05-15T00:48:18.470Z,63.57
2019-05-15T00:49:18.896Z,63.48
2019-05-15T00:50:18.416Z,63.67
2019-05-15T00:51:19.583Z,63.01
2019-05-15T00:52:18.229Z,63.20
2019-05-15T00:53:19.627Z,62.91
2019-05-15T00:54:19.204Z,63.48
2019-05-15T00:55:19.036Z,63.29
2019-05-15T00:56:19.483Z,63.39
2019-05-15T00:57:19.241Z,62.91
2019-05-15T00:58:20.025Z,63.01
2019-05-15T00:59:26.341Z,63.29
2019-05-15T01:00:18.646Z,63.20
2019-05-15T01:01:19.251Z,63.48
2019-05-15T01:02:18.142Z,63.20
2019-05-15T01:03:18.351Z,63.20
2019-05-15T01:04:18.760Z,63.01
2019-05-15T01:05:18.599Z,62.97
2019-05-15T01:06:19.071Z,63.17
2019-05-15T01:07:18.803Z,63.10
2019-05-15T01:08:19.142Z,62.97
2019-05-15T01:09:18.700Z,63.17
2019-05-15T01:10:19.403Z,62.78
2019-05-15T01:11:19.204Z,62.97
2019-05-15T01:12:18.435Z,63.45
2019-05-15T01:13:18.994Z,63.54
2019-05-15T01:14:18.599Z,62.88
2019-05-15T01:15:18.447Z,62.97
2019-05-15T01:16:18.666Z,62.97
2019-05-15T01:17:18.467Z,63.54
2019-05-15T01:18:18.710Z,63.54
2019-05-15T01:19:18.494Z,63.54
2019-05-15T01:20:18.918Z,63.73
2019-05-15T01:21:18.788Z,63.35
2019-05-15T01:22:19.536Z,63.07
2019-05-15T01:23:18.731Z,63.35
2019-05-15T01:24:18.911Z,63.45
2019-05-15T01:25:18.585Z,63.92
2019-05-15T01:26:18.878Z,63.45
2019-05-15T01:27:18.455Z,63.26
2019-05-15T01:28:18.328Z,63.54
2019-05-15T01:29:18.347Z,63.92
2019-05-15T01:30:18.023Z,63.64
2019-05-15T01:31:19.060Z,63.83
2019-05-15T01:32:19.088Z,63.92
2019-05-15T01:33:19.024Z,63.73
2019-05-15T01:34:18.446Z,63.35
2019-05-15T01:35:18.109Z,63.35
2019-05-15T01:36:19.274Z,63.54
2019-05-15T01:37:18.895Z,63.45
2019-05-15T01:38:18.690Z,63.92
2019-05-15T01:39:18.492Z,64.11
2019-05-15T01:40:18.294Z,63.64
2019-05-15T01:41:18.889Z,64.59
2019-05-15T01:42:18.590Z,63.54
2019-05-15T01:43:18.697Z,63.79
2019-05-15T01:44:18.004Z,63.92
2019-05-15T01:45:18.934Z,64.56
2019-05-15T01:46:19.059Z,64.31
2019-05-15T01:47:19.010Z,63.99
2019-05-15T01:48:18.992Z,64.37
2019-05-15T01:49:18.714Z,64.56
2019-05-15T01:50:18.560Z,64.46
2019-05-15T01:51:18.501Z,64.50
2019-05-15T01:52:18.786Z,64.08
2019-05-15T01:53:18.732Z,64.46
2019-05-15T01:54:18.655Z,64.08
2019-05-15T01:55:18.211Z,63.89
2019-05-15T01:56:18.771Z,64.46
2019-05-15T01:57:18.206Z,64.27
2019-05-15T01:58:18.668Z,63.99
2019-05-15T01:59:18.925Z,64.56
2019-05-15T02:00:18.869Z,64.27
2019-05-15T02:01:19.209Z,64.46
2019-05-15T02:02:18.708Z,64.75
2019-05-15T02:03:18.367Z,64.94
2019-05-15T02:04:19.728Z,64.65
2019-05-15T02:05:18.758Z,64.94
2019-05-15T02:06:18.953Z,65.32
2019-05-15T02:07:18.665Z,65.60
2019-05-15T02:08:19.104Z,65.80
2019-05-15T02:09:18.550Z,65.89
2019-05-15T02:10:18.624Z,65.51
2019-05-15T02:11:18.094Z,65.41
2019-05-15T02:12:19.153Z,65.80
2019-05-15T02:13:18.683Z,65.70
2019-05-15T02:14:18.983Z,66.27
2019-05-15T02:15:19.021Z,66.24
2019-05-15T02:16:19.180Z,66.36
2019-05-15T02:17:18.939Z,65.89
2019-05-15T02:18:19.143Z,66.27
2019-05-15T02:19:19.363Z,65.70
2019-05-15T02:20:18.747Z,66.24
2019-05-15T02:21:18.321Z,65.41
2019-05-15T02:22:18.895Z,65.76
2019-05-15T02:23:18.869Z,65.86
2019-05-15T02:24:18.933Z,65.41
2019-05-15T02:25:18.552Z,65.51
2019-05-15T02:26:18.883Z,65.89
2019-05-15T02:27:18.597Z,65.51
2019-05-15T02:28:18.403Z,66.08
2019-05-15T02:29:24.733Z,65.70
2019-05-15T02:30:27.822Z,65.38
2019-05-15T02:31:19.577Z,65.32
2019-05-15T02:32:19.294Z,65.41
2019-05-15T02:33:18.946Z,65.89
2019-05-15T02:34:19.455Z,65.51
2019-05-15T02:35:18.491Z,65.80
2019-05-15T02:36:20.383Z,65.89
2019-05-15T02:37:19.241Z,65.89
2019-05-15T02:38:19.950Z,65.80
2019-05-15T02:39:18.929Z,65.89
2019-05-15T02:40:19.097Z,65.70
2019-05-15T02:41:19.574Z,65.70
2019-05-15T02:42:19.219Z,65.57
2019-05-15T02:43:18.986Z,65.57
2019-05-15T02:44:19.963Z,65.47
2019-05-15T02:45:19.568Z,65.67
2019-05-15T02:46:19.473Z,65.47
2019-05-15T02:47:19.901Z,65.38
2019-05-15T02:48:19.934Z,65.95
2019-05-15T02:49:19.192Z,65.86
2019-05-15T02:50:20.196Z,65.57
2019-05-15T02:51:19.315Z,66.05
2019-05-15T02:52:19.890Z,65.76
2019-05-15T02:53:18.979Z,65.67
2019-05-15T02:54:19.666Z,65.95
2019-05-15T02:55:19.557Z,65.67
2019-05-15T02:56:20.039Z,65.38
2019-05-15T02:57:19.207Z,65.47
2019-05-15T02:58:21.195Z,65.47
2019-05-15T02:59:19.458Z,65.67
2019-05-15T03:00:35.322Z,65.57
2019-05-15T03:01:18.937Z,65.57
2019-05-15T03:02:19.111Z,65.57
2019-05-15T03:03:17.014Z,65.67
2019-05-15T03:04:20.015Z,65.86
2019-05-15T03:05:19.527Z,66.14
2019-05-15T03:06:19.208Z,65.95
2019-05-15T03:07:19.315Z,66.14
2019-05-15T03:08:19.575Z,66.24
2019-05-15T03:09:18.821Z,66.24
2019-05-15T03:10:19.900Z,66.05
2019-05-15T03:11:18.981Z,66.71
2019-05-15T03:12:19.569Z,66.52
2019-05-15T03:13:18.900Z,66.71
2019-05-15T03:14:16.899Z,66.61
2019-05-15T03:15:19.482Z,66.61
2019-05-15T03:16:19.326Z,66.52
2019-05-15T03:17:19.054Z,66.80
2019-05-15T03:18:19.381Z,66.52
2019-05-15T03:19:19.340Z,66.42
2019-05-15T03:20:18.635Z,66.14
2019-05-15T03:21:18.810Z,66.33
2019-05-15T03:22:19.350Z,66.42
2019-05-15T03:23:19.847Z,66.61
2019-05-15T03:24:19.425Z,66.33
2019-05-15T03:25:19.186Z,66.52
2019-05-15T03:26:19.746Z,66.61
2019-05-15T03:27:19.510Z,66.80
2019-05-15T03:28:19.090Z,67.19
2019-05-15T03:29:16.767Z,66.90
2019-05-15T03:30:21.430Z,66.80
2019-05-15T03:31:35.058Z,67.00
2019-05-15T03:32:27.739Z,66.90
2019-05-15T03:33:25.687Z,66.52
2019-05-15T03:34:23.429Z,66.80
2019-05-15T03:35:22.008Z,66.71
2019-05-15T03:36:22.232Z,67.28
2019-05-15T03:37:21.838Z,67.19
2019-05-15T03:38:19.284Z,67.19
2019-05-15T03:39:19.018Z,66.90
2019-05-15T03:40:19.427Z,66.52
2019-05-15T03:41:19.534Z,66.80
2019-05-15T03:42:19.056Z,66.90
2019-05-15T03:43:18.570Z,67.00
2019-05-15T03:44:19.533Z,66.90
2019-05-15T03:45:19.188Z,67.34
2019-05-15T03:46:19.695Z,66.90
2019-05-15T03:47:19.212Z,66.71
2019-05-15T03:48:19.434Z,67.00
2019-05-15T03:49:19.703Z,66.90
2019-05-15T03:50:19.267Z,67.38
2019-05-15T03:51:19.642Z,66.61
2019-05-15T03:52:19.088Z,66.80
2019-05-15T03:53:19.319Z,66.61
2019-05-15T03:54:18.951Z,67.00
2019-05-15T03:55:18.681Z,66.80
2019-05-15T03:56:19.048Z,66.90
2019-05-15T03:57:20.067Z,66.61
2019-05-15T03:58:20.926Z,66.52
2019-05-15T03:59:19.116Z,66.61
2019-05-15T04:00:19.339Z,66.52
2019-05-15T04:01:30.246Z,66.33
2019-05-15T04:02:19.242Z,67.00
2019-05-15T04:03:19.499Z,67.00
2019-05-15T04:04:18.935Z,66.90
2019-05-15T04:05:19.653Z,67.09
2019-05-15T04:06:19.181Z,66.42
2019-05-15T04:07:18.855Z,65.95
2019-05-15T04:08:19.184Z,66.71
2019-05-15T04:09:18.940Z,66.71
2019-05-15T04:10:19.751Z,66.71
2019-05-15T04:11:16.356Z,67.00
2019-05-15T04:12:19.430Z,66.33
2019-05-15T04:13:19.286Z,66.52
2019-05-15T04:14:19.260Z,67.00
2019-05-15T04:15:18.787Z,66.42
2019-05-15T04:16:19.091Z,66.42
2019-05-15T04:17:19.533Z,66.80
2019-05-15T04:18:19.664Z,66.14
2019-05-15T04:19:18.873Z,66.52
2019-05-15T04:20:19.762Z,66.33
2019-05-15T04:21:19.676Z,66.14
2019-05-15T04:22:19.487Z,65.95
2019-05-15T04:23:18.908Z,66.33
2019-05-15T04:24:18.834Z,65.86
2019-05-15T04:25:19.033Z,65.57
2019-05-15T04:26:19.254Z,65.38
2019-05-15T04:27:19.550Z,65.19
2019-05-15T04:28:19.126Z,65.57
2019-05-15T04:29:19.134Z,64.81
2019-05-15T04:30:18.902Z,64.53
2019-05-15T04:31:19.179Z,64.43
2019-05-15T04:32:19.764Z,64.43
2019-05-15T04:33:16.144Z,64.34
2019-05-15T04:34:19.265Z,64.34
2019-05-15T04:35:19.575Z,64.05
2019-05-15T04:36:18.918Z,63.48
2019-05-15T04:37:18.756Z,63.86
2019-05-15T04:38:16.107Z,63.67
2019-05-15T04:39:19.067Z,63.79
2019-05-15T04:40:19.164Z,63.79
2019-05-15T04:41:19.469Z,63.32
2019-05-15T04:42:16.056Z,63.04
2019-05-15T04:43:19.196Z,62.18
2019-05-15T04:44:19.116Z,62.27
2019-05-15T04:45:19.183Z,61.90
2019-05-15T04:46:19.240Z,61.80
2019-05-15T04:47:18.974Z,61.99
2019-05-15T04:48:16.000Z,61.61
2019-05-15T04:49:19.058Z,61.26
2019-05-15T04:50:19.114Z,60.88
2019-05-15T04:51:18.881Z,59.55
2019-05-15T04:52:19.346Z,59.74
2019-05-15T04:53:19.062Z,58.98
2019-05-15T04:54:15.944Z,58.69
2019-05-15T04:55:15.938Z,58.62
2019-05-15T04:56:15.925Z,58.53
2019-05-15T04:57:15.918Z,57.96
2019-05-15T04:58:20.297Z,58.53
2019-05-15T04:59:19.264Z,57.48
2019-05-15T05:00:15.888Z,57.58
2019-05-15T05:01:19.704Z,57.67
2019-05-15T05:02:19.294Z,57.58
2019-05-15T05:03:19.352Z,57.39
2019-05-15T05:04:18.703Z,57.29
2019-05-15T05:05:18.802Z,56.34
2019-05-15T05:06:18.805Z,56.24
2019-05-15T05:07:18.711Z,56.24
2019-05-15T05:08:15.816Z,55.80
2019-05-15T05:09:15.807Z,55.51
2019-05-15T05:10:15.797Z,55.32
2019-05-15T05:11:15.792Z,54.27
2019-05-15T05:12:15.781Z,54.37
2019-05-15T05:13:15.772Z,54.37
2019-05-15T05:14:15.763Z,53.89
2019-05-15T05:15:15.754Z,54.30
2019-05-15T05:16:18.868Z,54.39
2019-05-15T05:17:15.760Z,53.83
2019-05-15T05:18:18.655Z,53.44
2019-05-15T05:19:15.739Z,53.06
2019-05-15T05:20:17.849Z,53.54
2019-05-15T05:21:15.708Z,52.68
2019-05-15T05:22:15.700Z,52.59
2019-05-15T05:23:15.690Z,52.49
2019-05-15T05:24:15.684Z,52.01
2019-05-15T05:25:15.683Z,52.61
2019-05-15T05:26:18.338Z,52.42
2019-05-15T05:27:18.103Z,51.37
2019-05-15T05:28:23.377Z,51.66
2019-05-15T05:30:24.118Z,51.56
2019-05-15T05:31:09.124Z,51.76
2019-05-15T05:32:09.323Z,51.82
2019-05-15T05:33:09.056Z,52.23
2019-05-15T05:34:09.047Z,53.00
2019-05-15T05:35:09.040Z,52.52
2019-05-15T05:36:09.034Z,52.14
2019-05-15T05:37:09.037Z,51.37
2019-05-15T05:38:09.018Z,51.85
2019-05-15T05:39:11.419Z,51.85
2019-05-15T05:40:09.102Z,51.85
2019-05-15T05:41:09.003Z,51.02
2019-05-15T05:42:09.002Z,50.45
2019-05-15T05:43:09.553Z,50.63
2019-05-15T05:44:08.984Z,50.26
2019-05-15T05:45:09.484Z,49.87
2019-05-15T05:46:09.425Z,49.87
2019-05-15T05:47:09.348Z,48.92
2019-05-15T05:48:09.010Z,48.54
2019-05-15T05:49:08.959Z,49.11
2019-05-15T05:50:08.976Z,48.73
2019-05-15T05:51:09.443Z,49.11
2019-05-15T05:52:08.941Z,49.02
2019-05-15T05:53:08.969Z,49.11
2019-05-15T05:54:08.925Z,49.40
2019-05-15T05:55:09.133Z,49.40
2019-05-15T05:56:09.169Z,48.92
2019-05-15T05:57:09.214Z,48.83
2019-05-15T05:58:08.914Z,48.16
2019-05-15T05:59:09.554Z,48.73
2019-05-15T06:00:09.543Z,48.16
2019-05-15T06:01:09.491Z,48.35
2019-05-15T06:02:08.884Z,47.89
2019-05-15T06:03:08.947Z,48.08
2019-05-15T06:04:08.886Z,48.18
2019-05-15T06:05:08.871Z,47.52
2019-05-15T06:06:09.850Z,48.08
2019-05-15T06:07:13.266Z,48.08
2019-05-15T06:08:08.863Z,48.57
2019-05-15T06:09:09.381Z,47.52
2019-05-15T06:10:09.161Z,46.47
2019-05-15T06:11:09.739Z,45.99
2019-05-15T06:12:08.845Z,45.97
2019-05-15T06:13:08.947Z,46.25
2019-05-15T06:14:08.914Z,46.82
2019-05-15T06:15:09.224Z,46.84
2019-05-15T06:16:08.829Z,47.42
2019-05-15T06:17:08.827Z,47.42
2019-05-15T06:18:08.832Z,47.89
2019-05-15T06:19:08.823Z,47.54
2019-05-15T06:20:08.820Z,47.34
2019-05-15T06:21:09.234Z,46.11
2019-05-15T06:22:08.928Z,46.01
2019-05-15T06:23:08.801Z,45.82
2019-05-15T06:24:13.072Z,45.92
2019-05-15T06:25:11.244Z,45.92
2019-05-15T06:26:09.540Z,45.25
2019-05-15T06:27:08.784Z,44.58
2019-05-15T06:28:09.195Z,44.87
2019-05-15T06:29:08.987Z,45.15
2019-05-15T06:30:11.004Z,44.96
2019-05-15T06:31:09.001Z,44.67
2019-05-15T06:32:08.765Z,44.67
2019-05-15T06:33:13.287Z,43.53
2019-05-15T06:34:08.755Z,42.38
2019-05-15T06:35:08.887Z,42.29
2019-05-15T06:36:09.210Z,43.05
2019-05-15T06:37:08.742Z,42.67
2019-05-15T06:38:08.734Z,42.17
2019-05-15T06:39:08.724Z,43.43
2019-05-15T06:40:09.567Z,42.96
2019-05-15T06:41:08.953Z,42.00
2019-05-15T06:42:08.916Z,41.91
2019-05-15T06:43:08.903Z,41.91
2019-05-15T06:44:08.709Z,41.52
2019-05-15T06:45:08.713Z,41.71
2019-05-15T06:46:09.363Z,41.24
2019-05-15T06:47:08.697Z,41.24
2019-05-15T06:48:09.415Z,40.95
2019-05-15T06:49:08.692Z,41.52
2019-05-15T06:50:08.801Z,41.52
2019-05-15T06:51:09.067Z,41.45
2019-05-15T06:52:08.929Z,41.45
2019-05-15T06:53:10.852Z,40.20
2019-05-15T06:54:08.881Z,40.01
2019-05-15T06:55:09.253Z,39.92
2019-05-15T06:56:08.672Z,39.44
2019-05-15T06:57:09.201Z,40.11
2019-05-15T06:58:09.237Z,40.80
2019-05-15T06:59:08.919Z,40.42
2019-05-15T07:00:08.668Z,40.11
2019-05-15T07:01:08.993Z,40.49
2019-05-15T07:02:08.645Z,40.89
2019-05-15T07:03:18.103Z,40.70
2019-05-15T07:04:08.638Z,39.83
2019-05-15T07:05:08.646Z,40.01
2019-05-15T07:06:09.446Z,40.80
2019-05-15T07:07:11.160Z,40.32
2019-05-15T07:08:09.154Z,39.20
2019-05-15T07:09:09.500Z,39.67
2019-05-15T07:10:09.261Z,38.71
2019-05-15T07:11:09.005Z,38.53
2019-05-15T07:12:08.620Z,38.43
2019-05-15T07:13:08.917Z,37.19
2019-05-15T07:14:09.003Z,36.99
2019-05-15T07:15:09.209Z,36.90
2019-05-15T07:16:08.615Z,36.61
2019-05-15T07:17:09.304Z,36.99
2019-05-15T07:18:08.845Z,36.88
2019-05-15T07:19:08.614Z,37.26
2019-05-15T07:20:08.790Z,37.17
2019-05-15T07:21:10.345Z,38.12
2019-05-15T07:22:09.382Z,37.36
2019-05-15T07:23:08.966Z,37.46
2019-05-15T07:24:09.210Z,38.22
2019-05-15T07:25:08.993Z,38.51
2019-05-15T07:26:09.439Z,38.32
2019-05-15T07:27:08.601Z,38.32
2019-05-15T07:28:08.904Z,38.41
2019-05-15T07:29:08.605Z,38.14
2019-05-15T07:30:11.713Z,38.34
2019-05-15T07:31:11.636Z,37.48
2019-05-15T07:32:08.593Z,37.38
2019-05-15T07:33:08.838Z,36.90
2019-05-15T07:34:08.593Z,37.36
2019-05-15T07:35:08.593Z,37.85
2019-05-15T07:36:08.610Z,36.90
2019-05-15T07:37:09.669Z,36.92
2019-05-15T07:38:08.588Z,37.11
2019-05-15T07:39:08.593Z,36.82
2019-05-15T07:40:08.591Z,36.35
2019-05-15T07:41:10.234Z,36.55
2019-05-15T07:42:08.745Z,35.52
2019-05-15T07:43:09.381Z,35.02
2019-05-15T07:44:08.580Z,35.12
2019-05-15T07:45:08.583Z,34.81
2019-05-15T07:46:08.683Z,35.39
2019-05-15T07:47:08.964Z,35.86
2019-05-15T07:48:09.216Z,36.54
2019-05-15T07:49:09.038Z,35.68
2019-05-15T07:50:09.079Z,35.77
2019-05-15T07:51:11.399Z,36.35
2019-05-15T07:52:08.789Z,36.15
2019-05-15T07:53:08.866Z,36.15
2019-05-15T07:54:09.345Z,36.54
2019-05-15T07:55:08.806Z,37.13
2019-05-15T07:56:11.873Z,36.55
2019-05-15T07:57:09.050Z,36.17
2019-05-15T07:58:08.711Z,35.98
2019-05-15T07:59:08.587Z,35.50
2019-05-15T08:00:08.581Z,36.17
2019-05-15T08:01:10.061Z,36.38
2019-05-15T08:02:08.600Z,36.19
2019-05-15T08:03:10.360Z,36.19
2019-05-15T08:04:24.806Z,35.42
2019-05-15T08:05:08.592Z,35.04
2019-05-15T08:06:08.948Z,34.94
2019-05-15T08:07:09.161Z,35.63
2019-05-15T08:08:09.188Z,35.44
2019-05-15T08:09:08.871Z,34.20
2019-05-15T08:10:08.856Z,34.20
2019-05-15T08:11:19.750Z,35.08
2019-05-15T08:12:08.593Z,34.50
2019-05-15T08:13:08.951Z,32.86
2019-05-15T08:14:09.069Z,33.72
2019-05-15T08:15:08.953Z,33.99
2019-05-15T08:16:08.767Z,34.55
2019-05-15T08:17:08.809Z,35.60
2019-05-15T08:18:12.015Z,35.41
2019-05-15T08:19:08.687Z,36.36
2019-05-15T08:20:09.123Z,36.29
2019-05-15T08:21:09.118Z,36.38
2019-05-15T08:22:08.978Z,36.38
2019-05-15T08:23:08.638Z,36.21
2019-05-15T08:24:08.723Z,35.06
2019-05-15T08:25:12.947Z,35.25
2019-05-15T08:26:08.919Z,36.40
2019-05-15T08:27:08.614Z,35.92
2019-05-15T08:28:09.010Z,36.04
2019-05-15T08:29:08.617Z,34.88
2019-05-15T08:30:09.038Z,34.59
2019-05-15T08:31:10.160Z,35.67
2019-05-15T08:32:08.648Z,34.14
2019-05-15T08:33:08.656Z,32.79
2019-05-15T08:34:13.616Z,32.51
2019-05-15T08:35:08.627Z,33.06
2019-05-15T08:36:08.703Z,33.73
2019-05-15T08:37:08.632Z,34.12
2019-05-15T08:38:08.932Z,34.98
2019-05-15T08:39:08.638Z,34.31
2019-05-15T08:40:08.794Z,34.12
2019-05-15T08:41:11.542Z,33.65
2019-05-15T08:42:08.646Z,32.97
2019-05-15T08:43:11.435Z,32.97
2019-05-15T08:44:08.863Z,33.06
2019-05-15T08:45:09.228Z,32.78
2019-05-15T08:46:08.653Z,33.06
2019-05-15T08:47:08.652Z,33.83
2019-05-15T08:48:09.310Z,33.37
2019-05-15T08:49:09.232Z,33.65
2019-05-15T08:50:08.955Z,33.65
2019-05-15T08:51:08.931Z,32.89
2019-05-15T08:52:10.106Z,32.60
2019-05-15T08:53:08.668Z,33.27
2019-05-15T08:54:08.730Z,32.89
2019-05-15T08:55:08.834Z,32.31
2019-05-15T08:56:08.745Z,32.79
2019-05-15T08:57:08.686Z,31.93
2019-05-15T08:58:13.679Z,32.51
2019-05-15T08:59:08.923Z,31.74
2019-05-15T09:00:09.867Z,31.34
2019-05-15T09:01:09.853Z,31.61
2019-05-15T09:02:08.697Z,32.95
2019-05-15T09:03:08.805Z,32.46
2019-05-15T09:04:09.067Z,32.93
2019-05-15T09:05:08.883Z,33.89
2019-05-15T09:06:09.236Z,33.32
2019-05-15T09:07:09.361Z,33.33
2019-05-15T09:08:09.289Z,33.43
2019-05-15T09:09:09.539Z,33.53
2019-05-15T09:10:09.132Z,33.32
2019-05-15T09:11:09.424Z,34.08
2019-05-15T09:12:08.735Z,33.62
2019-05-15T09:13:09.604Z,33.91
2019-05-15T09:14:08.718Z,34.02
2019-05-15T09:15:08.721Z,32.51
2019-05-15T09:16:08.721Z,31.93
2019-05-15T09:17:08.779Z,31.93
2019-05-15T09:18:15.647Z,31.45
2019-05-15T09:19:08.734Z,31.26
2019-05-15T09:20:08.735Z,32.42
2019-05-15T09:21:09.048Z,32.25
2019-05-15T09:22:09.231Z,31.67
2019-05-15T09:23:09.083Z,31.70
2019-05-15T09:24:09.400Z,30.93
2019-05-15T09:25:10.281Z,30.07
2019-05-15T09:26:09.394Z,29.69
2019-05-15T09:27:10.257Z,29.75
2019-05-15T09:28:08.818Z,30.32
2019-05-15T09:29:09.466Z,31.95
2019-05-15T09:30:08.934Z,32.73
2019-05-15T09:31:08.775Z,30.90
2019-05-15T09:32:12.394Z,30.99
2019-05-15T09:33:08.892Z,30.79
2019-05-15T09:34:09.237Z,31.26
2019-05-15T09:35:08.773Z,31.84
2019-05-15T09:36:09.147Z,32.79
2019-05-15T09:37:08.780Z,32.71
2019-05-15T09:38:08.815Z,32.23
2019-05-15T09:39:08.827Z,32.15
2019-05-15T09:40:09.165Z,31.10
2019-05-15T09:41:09.211Z,30.99
2019-05-15T09:42:08.790Z,31.46
2019-05-15T09:43:10.772Z,32.04
2019-05-15T09:44:08.805Z,31.27
2019-05-15T09:45:09.107Z,31.46
2019-05-15T09:46:10.434Z,31.38
2019-05-15T09:47:09.274Z,31.38
2019-05-15T09:48:10.146Z,30.90
2019-05-15T09:49:09.783Z,30.81
2019-05-15T09:50:09.775Z,31.10
2019-05-15T09:51:09.365Z,30.81
2019-05-15T09:52:09.094Z,30.92
2019-05-15T09:53:09.364Z,31.40
2019-05-15T09:54:08.827Z,30.73
2019-05-15T09:55:08.875Z,30.82
2019-05-15T09:56:08.848Z,30.33
2019-05-15T09:57:10.546Z,30.62
2019-05-15T09:58:08.845Z,31.18
2019-05-15T09:59:09.203Z,31.20
2019-05-15T10:00:09.090Z,30.89
2019-05-15T10:01:08.865Z,31.18
2019-05-15T10:02:09.285Z,32.42
2019-05-15T10:03:09.592Z,31.38
2019-05-15T10:04:08.876Z,30.90
2019-05-15T10:05:11.141Z,31.08
2019-05-15T10:06:08.867Z,31.95
2019-05-15T10:07:08.869Z,33.00
2019-05-15T10:08:09.164Z,31.85
2019-05-15T10:09:09.225Z,31.27
2019-05-15T10:10:08.921Z,31.27
2019-05-15T10:11:09.221Z,32.14
2019-05-15T10:12:09.258Z,32.14
2019-05-15T10:13:09.133Z,31.56
2019-05-15T10:14:09.779Z,31.75
2019-05-15T10:15:11.364Z,31.67
2019-05-15T10:16:08.898Z,31.29
2019-05-15T10:17:09.284Z,31.18
2019-05-15T10:18:09.974Z,31.66
2019-05-15T10:19:09.078Z,32.44
2019-05-15T10:20:09.289Z,32.07
2019-05-15T10:21:09.305Z,31.11
2019-05-15T10:22:09.651Z,30.73
2019-05-15T10:23:09.028Z,31.10
2019-05-15T10:24:09.563Z,31.08
2019-05-15T10:25:08.929Z,31.93
2019-05-15T10:26:13.989Z,32.97
2019-05-15T10:27:08.993Z,32.89
2019-05-15T10:28:09.914Z,33.08
2019-05-15T10:29:09.280Z,33.00
2019-05-15T10:30:09.296Z,32.04
2019-05-15T10:31:09.556Z,32.21
2019-05-15T10:32:08.952Z,32.70
2019-05-15T10:33:08.954Z,33.00
2019-05-15T10:34:09.323Z,32.70
2019-05-15T10:35:24.120Z,33.37
2019-05-15T10:36:08.961Z,33.27
2019-05-15T10:37:08.970Z,33.08
2019-05-15T10:38:09.054Z,33.17
2019-05-15T10:39:08.996Z,33.58
2019-05-15T10:40:09.251Z,33.11
2019-05-15T10:41:14.834Z,31.87
2019-05-15T10:42:08.979Z,31.98
2019-05-15T10:43:09.381Z,31.59
2019-05-15T10:44:09.402Z,31.11
2019-05-15T10:45:08.990Z,30.90
2019-05-15T10:46:13.007Z,31.10
2019-05-15T10:47:09.026Z,31.46
2019-05-15T10:48:09.511Z,32.44
2019-05-15T10:49:09.003Z,31.87
2019-05-15T10:50:09.004Z,31.40
2019-05-15T10:51:10.243Z,30.92
2019-05-15T10:52:11.260Z,30.81
2019-05-15T10:53:11.322Z,31.11
2019-05-15T10:54:09.016Z,30.92
2019-05-15T10:55:09.615Z,30.63
2019-05-15T10:56:09.138Z,30.84
2019-05-15T10:57:09.031Z,31.34
2019-05-15T10:58:16.741Z,30.10
2019-05-15T10:59:09.038Z,30.28
2019-05-15T11:00:09.041Z,30.10
2019-05-15T11:01:11.405Z,29.80
2019-05-15T11:02:09.045Z,30.74
2019-05-15T11:03:09.046Z,30.84
2019-05-15T11:04:09.424Z,31.41
2019-05-15T11:05:09.555Z,31.41
2019-05-15T11:06:09.293Z,31.32
2019-05-15T11:07:09.832Z,30.93
2019-05-15T11:08:09.070Z,30.73
2019-05-15T11:09:09.080Z,31.00
2019-05-15T11:10:09.077Z,31.48
2019-05-15T11:11:09.406Z,31.87
2019-05-15T11:12:09.093Z,31.98
2019-05-15T11:13:09.142Z,32.46
2019-05-15T11:14:09.384Z,31.80
2019-05-15T11:15:11.355Z,30.93
2019-05-15T11:16:09.102Z,30.93
2019-05-15T11:17:09.102Z,29.48
2019-05-15T11:18:09.393Z,29.83
2019-05-15T11:19:09.131Z,30.51
2019-05-15T11:20:09.117Z,31.29
2019-05-15T11:21:09.121Z,31.00
2019-05-15T11:22:09.203Z,30.63
2019-05-15T11:23:09.129Z,30.73
2019-05-15T11:24:19.294Z,30.82
2019-05-15T11:26:02.871Z,31.21
2019-05-15T11:27:02.800Z,30.82
2019-05-15T11:28:58.796Z,30.92
2019-05-15T11:29:58.530Z,30.54
2019-05-15T11:31:52.453Z,31.02
2019-05-15T11:32:50.405Z,30.73
2019-05-15T11:34:43.898Z,30.05
2019-05-15T11:35:56.879Z,29.96
2019-05-15T11:37:44.010Z,30.14
2019-05-15T11:38:38.213Z,30.82
2019-05-15T11:40:38.965Z,30.90
2019-05-15T11:41:31.906Z,31.00
2019-05-15T11:43:25.328Z,31.38
2019-05-15T11:44:25.303Z,31.08
2019-05-15T11:46:20.848Z,32.31
2019-05-15T11:47:18.748Z,32.60
2019-05-15T11:49:12.212Z,33.59
2019-05-15T11:50:12.173Z,31.59
2019-05-15T11:52:05.683Z,31.03
2019-05-15T11:53:08.496Z,30.55
2019-05-15T11:55:00.364Z,30.05
2019-05-15T11:56:00.331Z,30.44
2019-05-15T11:57:00.305Z,30.15
2019-05-15T11:58:00.307Z,30.23
2019-05-15T11:59:00.323Z,31.11
2019-05-15T12:00:00.315Z,30.82
2019-05-15T12:01:00.342Z,30.44
2019-05-15T12:02:00.325Z,30.73
2019-05-15T12:03:00.321Z,30.73
2019-05-15T12:04:00.327Z,30.15
2019-05-15T12:05:00.333Z,31.00
2019-05-15T12:06:14.833Z,31.20
2019-05-15T12:07:02.651Z,31.30
2019-05-15T12:08:00.343Z,31.11
2019-05-15T12:09:00.346Z,31.40
2019-05-15T12:10:00.344Z,30.74
2019-05-15T12:11:00.355Z,30.82
2019-05-15T12:12:00.403Z,30.73
2019-05-15T12:13:00.353Z,31.11
2019-05-15T12:14:00.359Z,30.65
2019-05-15T12:15:00.364Z,31.03
2019-05-15T12:16:00.364Z,31.21
2019-05-15T12:17:10.638Z,31.59
2019-05-15T12:18:00.372Z,31.11
2019-05-15T12:19:09.144Z,31.23
2019-05-15T12:20:05.669Z,31.41
2019-05-15T12:21:00.381Z,30.84
2019-05-15T12:22:00.383Z,30.92
2019-05-15T12:23:00.405Z,30.73
2019-05-15T12:24:00.387Z,31.21
2019-05-15T12:25:01.056Z,30.92
2019-05-15T12:26:00.398Z,31.11
2019-05-15T12:27:13.906Z,31.02
2019-05-15T12:28:00.395Z,31.10
2019-05-15T12:29:00.405Z,31.29
2019-05-15T12:30:00.403Z,31.18
2019-05-15T12:31:00.410Z,31.46
2019-05-15T12:32:11.695Z,32.25
2019-05-15T12:33:00.452Z,31.96
2019-05-15T12:34:00.408Z,31.87
2019-05-15T12:35:00.417Z,32.25
2019-05-15T12:36:00.419Z,31.96
2019-05-15T12:37:00.413Z,31.37
2019-05-15T12:38:00.415Z,32.42
2019-05-15T12:39:09.032Z,33.00
2019-05-15T13:00:00.438Z,34.04
2019-05-15T13:01:12.734Z,34.04
2019-05-15T13:02:00.441Z,34.23
2019-05-15T13:03:00.463Z,34.15
2019-05-15T13:04:00.446Z,34.25
2019-05-15T13:05:00.445Z,34.17
2019-05-15T13:06:00.473Z,32.82
2019-05-15T13:07:13.003Z,33.00
2019-05-15T13:08:00.446Z,32.90
2019-05-15T13:09:00.445Z,33.09
2019-05-15T13:10:00.449Z,32.52
2019-05-15T13:11:00.444Z,33.58
2019-05-15T13:12:00.449Z,34.07
2019-05-15T13:13:05.168Z,33.59
2019-05-15T13:14:00.450Z,33.61
2019-05-15T13:15:00.446Z,33.05
2019-05-15T13:16:00.451Z,32.95
2019-05-15T13:17:00.450Z,32.47
2019-05-15T13:18:00.451Z,31.02
2019-05-15T13:19:00.453Z,31.10
2019-05-15T13:20:00.451Z,32.06
2019-05-15T13:21:00.451Z,32.92
2019-05-15T13:22:00.460Z,32.06
2019-05-15T13:23:00.497Z,32.46